Time;durP1;ratioP1;P1;durP2;ratioP2;P2;SDS_P1;SDS_P2;PMS_P1;PMS_P2;Temp;Humidity;BMP_temperature;BMP_pressure;BME280_temperature;BME280_humidity;BME280_pressure;Samples;Min_cycle;Max_cycle;Signal;HPM_P1;HPM_P2
2024/01/29 00:00:27;;;;;;;23.60;13.70;;;;;;;3.98;86.44;102661.98;112700;243;38646;-73
2024/01/29 00:03:21;;;;;;;22.30;13.70;;;;;;;3.96;86.50;102664.19;112627;243;155116;-72
2024/01/29 00:05:55;;;;;;;22.80;12.80;;;;;;;3.95;86.59;102663.48;112655;244;39064;-69
2024/01/29 00:08:29;;;;;;;44.90;24.60;;;;;;;3.95;86.18;102668.50;112751;244;39743;-69
2024/01/29 00:11:03;;;;;;;39.10;21.30;;;;;;;3.96;85.87;102671.61;112542;243;154212;-69
2024/01/29 00:13:37;;;;;;;33.80;19.70;;;;;;;3.95;86.04;102671.27;112689;243;39489;-69
2024/01/29 00:16:12;;;;;;;27.30;16.60;;;;;;;3.95;85.81;102668.50;112526;243;154342;-71
2024/01/29 00:18:45;;;;;;;25.90;15.70;;;;;;;3.95;86.05;102672.81;112687;244;39459;-71
2024/01/29 00:21:19;;;;;;;32.40;18.90;;;;;;;3.96;86.04;102672.65;112651;244;155144;-70
2024/01/29 00:23:56;;;;;;;29.90;16.80;;;;;;;3.93;85.84;102682.60;112672;243;38393;-70
2024/01/29 00:26:30;;;;;;;25.10;16.50;;;;;;;3.92;85.87;102678.59;112760;243;39245;-72
2024/01/29 00:29:04;;;;;;;19.30;13.70;;;;;;;3.92;85.99;102677.55;112540;241;154431;-70
2024/01/29 00:31:38;;;;;;;16.30;12.40;;;;;;;3.94;86.01;102675.20;112729;243;38818;-70
2024/01/29 00:34:12;;;;;;;17.30;11.40;;;;;;;3.94;85.92;102668.30;112486;241;175072;-70
2024/01/29 00:36:46;;;;;;;17.10;11.20;;;;;;;3.92;85.75;102666.85;112697;244;38752;-70
2024/01/29 00:39:20;;;;;;;14.10;10.40;;;;;;;3.90;85.68;102664.19;112672;242;154867;-71
2024/01/29 00:41:54;;;;;;;18.50;11.90;;;;;;;3.87;85.58;102664.83;112650;244;40192;-71
2024/01/29 00:44:31;;;;;;;14.60;11.30;;;;;;;3.85;85.70;102662.55;112785;243;39042;-71
2024/01/29 00:47:05;;;;;;;16.50;11.20;;;;;;;3.85;85.34;102663.76;112422;243;189751;-71
2024/01/29 00:49:39;;;;;;;18.90;10.60;;;;;;;3.84;85.21;102662.65;112776;244;38555;-71
2024/01/29 00:52:13;;;;;;;15.60;11.20;;;;;;;3.82;85.49;102664.69;111867;243;908940;-71
2024/01/29 00:54:48;;;;;;;16.50;10.30;;;;;;;3.79;85.49;102658.56;112682;243;38280;-70
2024/01/29 00:57:22;;;;;;;15.70;10.40;;;;;;;3.77;85.14;102650.73;112790;244;39480;-70
2024/01/29 00:59:56;;;;;;;15.90;10.60;;;;;;;3.74;85.30;102649.11;112765;244;39650;-70
2024/01/29 01:02:30;;;;;;;16.40;11.40;;;;;;;3.72;85.08;102647.49;112626;244;175037;-70
2024/01/29 01:05:04;;;;;;;15.30;11.90;;;;;;;3.67;85.22;102643.21;112583;242;154484;-71
2024/01/29 01:07:38;;;;;;;16.00;11.70;;;;;;;3.62;85.07;102639.82;112766;244;38419;-71
2024/01/29 01:10:13;;;;;;;19.00;12.30;;;;;;;3.51;84.83;102638.14;112635;242;152990;-71
2024/01/29 01:12:47;;;;;;;18.40;12.00;;;;;;;3.41;84.84;102636.64;112694;243;39735;-71
2024/01/29 01:15:21;;;;;;;15.60;10.20;;;;;;;3.34;84.80;102634.21;112836;244;39853;-69
2024/01/29 01:17:56;;;;;;;14.80;10.50;;;;;;;3.24;84.51;102627.73;112783;244;38824;-69
2024/01/29 01:20:30;;;;;;;14.90;10.40;;;;;;;3.15;84.50;102627.46;112110;243;910515;-69
2024/01/29 01:23:04;;;;;;;14.60;10.00;;;;;;;3.09;84.80;102626.77;112769;244;38717;-69
2024/01/29 01:25:38;;;;;;;15.50;10.10;;;;;;;3.03;84.58;102625.04;112795;244;38532;-69
2024/01/29 01:28:13;;;;;;;15.40;10.00;;;;;;;2.93;84.84;102625.11;112611;243;154247;-69
2024/01/29 01:30:46;;;;;;;17.40;10.50;;;;;;;2.85;84.72;102624.86;112664;243;39975;-71
2024/01/29 01:33:20;;;;;;;17.00;10.80;;;;;;;2.74;84.60;102627.63;112784;243;38760;-71
2024/01/29 01:35:54;;;;;;;13.60;9.30;;;;;;;2.64;84.54;102626.97;112097;243;908381;-71
2024/01/29 01:38:28;;;;;;;12.60;9.30;;;;;;;2.54;84.40;102624.81;112789;243;38537;-71
2024/01/29 01:41:02;;;;;;;13.20;10.10;;;;;;;2.43;84.34;102631.31;112581;243;153988;-71
2024/01/29 01:43:36;;;;;;;15.70;9.50;;;;;;;2.33;84.63;102629.80;112757;244;38370;-71
2024/01/29 01:46:22;;;;;;;16.80;9.60;;;;;;;2.26;84.83;102624.92;112616;242;155382;-70
2024/01/29 01:48:57;;;;;;;12.70;9.20;;;;;;;2.15;84.85;102624.06;112695;243;38252;-70
2024/01/29 01:51:31;;;;;;;14.10;9.20;;;;;;;2.04;84.72;102629.20;112682;244;39663;-69
2024/01/29 01:54:06;;;;;;;13.60;8.70;;;;;;;1.95;84.79;102632.84;112510;242;154536;-71
2024/01/29 01:56:40;;;;;;;17.20;9.30;;;;;;;1.85;84.60;102634.06;112786;244;38503;-71
2024/01/29 01:59:14;;;;;;;11.90;8.70;;;;;;;1.77;84.98;102633.81;112569;243;154974;-71
2024/01/29 02:01:49;;;;;;;19.20;9.90;;;;;;;1.71;85.22;102633.92;112738;243;38698;-71
2024/01/29 02:04:23;;;;;;;14.20;8.90;;;;;;;1.64;85.41;102636.43;112623;243;155328;-69
2024/01/29 02:06:57;;;;;;;14.00;8.80;;;;;;;1.58;85.66;102642.41;112709;243;38717;-69
2024/01/29 02:09:30;;;;;;;13.10;8.40;;;;;;;1.54;85.64;102646.92;112794;243;39553;-71
2024/01/29 02:12:05;;;;;;;11.80;8.40;;;;;;;1.49;85.83;102651.91;112663;241;154493;-71
2024/01/29 02:14:39;;;;;;;10.60;8.30;;;;;;;1.47;85.98;102650.27;112774;243;38519;-71
2024/01/29 02:17:12;;;;;;;10.90;8.30;;;;;;;1.46;86.06;102647.85;112547;241;154214;-71
2024/01/29 02:19:46;;;;;;;13.60;8.90;;;;;;;1.44;86.22;102640.23;112770;243;38419;-70
2024/01/29 02:22:20;;;;;;;12.50;8.40;;;;;;;1.44;86.39;102638.30;112602;243;155325;-71
2024/01/29 02:24:54;;;;;;;13.80;8.90;;;;;;;1.40;86.49;102636.61;112713;243;39315;-70
2024/01/29 02:27:28;;;;;;;14.20;9.30;;;;;;;1.38;86.80;102634.69;112825;243;38893;-71
2024/01/29 02:30:02;;;;;;;12.10;8.30;;;;;;;1.39;86.82;102634.52;112688;241;154560;-71
2024/01/29 02:32:36;;;;;;;13.50;9.30;;;;;;;1.40;87.11;102635.08;112633;243;172567;-71
2024/01/29 02:35:11;;;;;;;12.90;8.30;;;;;;;1.42;87.09;102637.38;112540;243;154756;-69
2024/01/29 02:37:45;;;;;;;13.10;8.80;;;;;;;1.45;87.26;102638.35;112747;243;39735;-69
2024/01/29 02:40:20;;;;;;;12.70;8.70;;;;;;;1.45;87.15;102640.76;112626;241;155293;-71
2024/01/29 02:42:53;;;;;;;11.20;9.10;;;;;;;1.46;87.48;102645.27;112658;243;39565;-71
2024/01/29 02:45:27;;;;;;;14.10;9.10;;;;;;;1.48;87.68;102646.75;112795;243;38318;-69
2024/01/29 02:48:01;;;;;;;13.40;8.60;;;;;;;1.49;87.82;102651.06;112648;241;154522;-69
2024/01/29 02:50:35;;;;;;;15.40;8.50;;;;;;;1.51;87.80;102652.48;112858;243;38944;-71
2024/01/29 02:53:09;;;;;;;16.00;9.50;;;;;;;1.53;87.93;102661.16;112598;242;154635;-71
2024/01/29 02:55:43;;;;;;;13.90;8.50;;;;;;;1.57;87.93;102663.17;112743;243;38335;-71
2024/01/29 02:58:18;;;;;;;13.90;8.50;;;;;;;1.57;87.54;102663.40;112629;241;154615;-71
2024/01/29 03:00:52;;;;;;;13.10;8.80;;;;;;;1.57;87.56;102658.20;112722;243;38896;-72
2024/01/29 03:03:25;;;;;;;12.00;8.60;;;;;;;1.55;87.63;102655.57;112751;243;39692;-72
2024/01/29 03:05:59;;;;;;;14.30;8.90;;;;;;;1.54;87.80;102649.88;112530;242;153835;-71
2024/01/29 03:08:33;;;;;;;12.70;8.60;;;;;;;1.51;87.67;102646.98;112776;243;38393;-71
2024/01/29 03:11:07;;;;;;;12.60;8.20;;;;;;;1.47;87.54;102643.22;112568;242;154927;-70
2024/01/29 03:13:41;;;;;;;12.50;7.90;;;;;;;1.44;87.56;102640.89;112733;243;39221;-70
2024/01/29 03:16:15;;;;;;;13.60;8.60;;;;;;;1.41;87.51;102637.34;112618;242;154750;-70
2024/01/29 03:18:49;;;;;;;11.90;8.60;;;;;;;1.37;87.41;102634.62;112624;244;38343;-70
2024/01/29 03:21:24;;;;;;;11.80;8.20;;;;;;;1.34;87.40;102635.71;112680;244;38325;-70
2024/01/29 03:23:59;;;;;;;11.90;8.80;;;;;;;1.27;87.20;102632.72;112513;242;154034;-71
2024/01/29 03:26:33;;;;;;;14.20;9.70;;;;;;;1.17;87.28;102629.09;112646;243;40323;-71
2024/01/29 03:29:06;;;;;;;11.60;8.70;;;;;;;1.07;87.06;102628.19;112545;242;154054;-70
2024/01/29 03:31:40;;;;;;;14.30;9.30;;;;;;;0.96;87.09;102625.20;112687;244;38367;-70
2024/01/29 03:34:14;;;;;;;11.50;8.10;;;;;;;0.87;86.96;102616.11;112496;244;154858;-71
2024/01/29 03:36:49;;;;;;;13.00;8.60;;;;;;;0.81;87.11;102613.63;112667;244;38921;-72
2024/01/29 03:39:23;;;;;;;12.70;9.20;;;;;;;0.76;87.19;102613.45;112719;244;38382;-70
2024/01/29 03:41:57;;;;;;;13.60;9.00;;;;;;;0.69;87.29;102609.77;112484;244;153998;-70
2024/01/29 03:44:31;;;;;;;12.00;9.10;;;;;;;0.64;87.42;102608.02;112775;244;39495;-70
2024/01/29 03:47:05;;;;;;;15.90;10.00;;;;;;;0.57;87.75;102604.65;112637;241;155361;-72
2024/01/29 03:49:40;;;;;;;12.60;9.10;;;;;;;0.54;87.97;102602.30;112747;243;38394;-70
2024/01/29 03:52:13;;;;;;;13.50;8.90;;;;;;;0.50;87.92;102597.66;112614;242;155976;-70
2024/01/29 03:54:47;;;;;;;12.70;8.50;;;;;;;0.45;87.56;102593.52;112695;243;38593;-69
2024/01/29 03:57:21;;;;;;;15.60;9.70;;;;;;;0.42;87.83;102592.91;112609;243;175232;-68
2024/01/29 03:59:56;;;;;;;13.20;9.90;;;;;;;0.39;87.90;102584.55;112501;241;154592;-70
2024/01/29 04:02:30;;;;;;;12.50;8.90;;;;;;;0.33;87.60;102587.75;112647;243;38464;-70
2024/01/29 04:05:04;;;;;;;16.10;9.30;;;;;;;0.25;87.83;102585.20;112454;241;172622;-71
2024/01/29 04:07:38;;;;;;;13.30;9.30;;;;;;;0.18;87.80;102584.73;112746;243;38273;-71
2024/01/29 04:10:13;;;;;;;14.30;8.80;;;;;;;0.12;88.13;102584.16;112650;241;154763;-70
2024/01/29 04:12:46;;;;;;;13.30;9.10;;;;;;;0.10;88.16;102582.88;111982;243;912245;-70
2024/01/29 04:15:20;;;;;;;13.80;10.20;;;;;;;0.10;88.58;102575.69;112777;243;38398;-70
2024/01/29 04:17:55;;;;;;;13.80;9.50;;;;;;;0.12;88.56;102577.11;112562;241;154555;-71
2024/01/29 04:20:29;;;;;;;14.10;9.90;;;;;;;0.10;88.47;102578.10;112764;243;38469;-68
2024/01/29 04:23:03;;;;;;;18.10;10.90;;;;;;;0.05;88.49;102580.09;112651;241;155135;-68
2024/01/29 04:25:37;;;;;;;17.10;11.60;;;;;;;0.02;88.72;102574.98;112756;243;37297;-68
2024/01/29 04:28:11;;;;;;;15.70;10.20;;;;;;;-0.03;88.89;102572.75;112647;242;155790;-68
2024/01/29 04:30:45;;;;;;;17.40;10.60;;;;;;;-0.05;89.26;102568.23;112712;243;38448;-69
2024/01/29 04:33:19;;;;;;;16.20;10.70;;;;;;;-0.02;89.73;102567.82;112758;243;38932;-70
2024/01/29 04:35:53;;;;;;;14.60;10.40;;;;;;;0.02;89.84;102566.27;112535;242;155308;-69
2024/01/29 04:38:27;;;;;;;17.20;10.80;;;;;;;0.04;89.65;102568.52;112716;243;39555;-70
2024/01/29 04:41:01;;;;;;;16.10;10.50;;;;;;;0.04;89.59;102563.25;112554;244;154184;-70
2024/01/29 04:43:35;;;;;;;17.20;10.90;;;;;;;0.05;89.77;102567.25;112715;243;39775;-70
2024/01/29 04:46:09;;;;;;;18.30;12.60;;;;;;;0.06;89.80;102573.13;112603;243;155411;-70
2024/01/29 04:48:43;;;;;;;17.70;11.20;;;;;;;0.06;89.93;102573.95;112624;243;38305;-71
2024/01/29 04:51:17;;;;;;;17.20;11.20;;;;;;;0.06;90.16;102567.94;112543;244;189487;-70
2024/01/29 04:53:52;;;;;;;18.90;10.30;;;;;;;0.08;90.28;102566.31;112517;242;154883;-71
2024/01/29 04:56:26;;;;;;;16.90;10.10;;;;;;;0.13;90.43;102567.20;112630;244;39531;-68
2024/01/29 04:59:00;;;;;;;15.80;10.40;;;;;;;0.16;90.28;102567.49;112499;242;154923;-69
2024/01/29 05:01:34;;;;;;;17.40;10.90;;;;;;;0.17;90.26;102572.88;112532;244;172681;-70
2024/01/29 05:04:08;;;;;;;15.80;11.30;;;;;;;0.20;90.33;102577.79;112587;243;154467;-69
2024/01/29 05:06:42;;;;;;;16.30;10.80;;;;;;;0.18;90.21;102579.08;112444;244;326543;-68
2024/01/29 05:09:17;;;;;;;13.20;9.90;;;;;;;0.16;90.21;102576.27;112810;243;40164;-69
2024/01/29 05:11:51;;;;;;;14.10;10.30;;;;;;;0.14;89.85;102577.73;112529;243;154602;-70
2024/01/29 05:14:27;;;;;;;13.70;9.70;;;;;;;0.13;89.85;102583.32;112813;244;38934;-71
2024/01/29 05:17:01;;;;;;;16.10;10.30;;;;;;;0.14;90.06;102591.62;112499;243;154720;-72
2024/01/29 05:19:35;;;;;;;16.30;11.00;;;;;;;0.14;89.93;102591.95;112717;243;38681;-70
2024/01/29 05:22:09;;;;;;;15.50;10.40;;;;;;;0.14;89.82;102593.14;112589;243;155293;-71
2024/01/29 05:24:44;;;;;;;16.00;10.30;;;;;;;0.10;89.81;102589.58;112683;244;38403;-71
2024/01/29 05:27:17;;;;;;;16.10;10.40;;;;;;;0.11;89.86;102590.63;112771;243;38624;-70
2024/01/29 05:29:51;;;;;;;14.50;9.40;;;;;;;0.13;90.08;102587.10;112541;242;155043;-69
2024/01/29 05:32:25;;;;;;;14.90;9.70;;;;;;;0.18;90.31;102590.09;112777;243;38692;-69
2024/01/29 05:35:00;;;;;;;13.50;9.70;;;;;;;0.25;90.48;102587.27;112544;242;154559;-70
2024/01/29 05:37:34;;;;;;;16.80;10.50;;;;;;;0.33;90.68;102581.05;112589;244;175158;-70
2024/01/29 05:40:11;;;;;;;18.00;10.90;;;;;;;0.37;90.66;102580.88;112663;243;154872;-69
2024/01/29 05:42:52;;;;;;;18.50;11.40;;;;;;;0.45;91.14;102582.36;112663;243;38901;-69
2024/01/29 05:45:26;;;;;;;14.80;10.20;;;;;;;0.52;91.27;102583.15;112772;243;38559;-71
2024/01/29 05:48:03;;;;;;;14.90;10.10;;;;;;;0.59;91.36;102574.67;112545;241;154532;-72
2024/01/29 05:50:38;;;;;;;12.20;8.60;;;;;;;0.70;91.60;102569.58;112750;243;39892;-69
2024/01/29 05:53:12;;;;;;;14.70;10.10;;;;;;;0.80;91.51;102572.89;112570;243;154040;-69
2024/01/29 05:55:46;;;;;;;12.10;9.40;;;;;;;0.89;91.29;102571.33;112741;243;38594;-69
2024/01/29 05:58:21;;;;;;;13.30;9.20;;;;;;;0.93;91.18;102571.13;112526;243;154055;-70
2024/01/29 06:00:55;;;;;;;16.70;10.70;;;;;;;0.95;91.20;102567.11;112699;244;38919;-69
2024/01/29 06:03:30;;;;;;;12.30;9.20;;;;;;;0.98;91.13;102567.91;112767;244;38278;-69
2024/01/29 06:06:04;;;;;;;13.50;9.40;;;;;;;1.02;91.02;102568.19;112526;242;154904;-68
2024/01/29 06:08:38;;;;;;;13.80;10.10;;;;;;;1.05;90.84;102572.08;112757;243;38741;-68
2024/01/29 06:11:12;;;;;;;12.60;8.60;;;;;;;1.11;90.79;102566.13;112587;241;155618;-70
2024/01/29 06:13:46;;;;;;;12.40;9.30;;;;;;;1.19;90.78;102564.67;112706;243;40023;-70
2024/01/29 06:16:28;;;;;;;13.90;10.40;;;;;;;1.21;90.45;102569.89;112578;242;154077;-68
2024/01/29 06:19:02;;;;;;;14.30;10.70;;;;;;;1.23;90.47;102576.20;112692;243;39472;-70
2024/01/29 06:21:36;;;;;;;14.10;11.20;;;;;;;1.26;90.59;102578.84;112784;243;38941;-71
2024/01/29 06:24:10;;;;;;;15.80;10.60;;;;;;;1.28;90.70;102582.91;112620;244;39079;-69
2024/01/29 06:26:44;;;;;;;14.60;10.20;;;;;;;1.32;90.59;102585.95;112773;244;38508;-68
2024/01/29 06:29:18;;;;;;;13.70;9.40;;;;;;;1.37;90.47;102580.44;112516;242;155714;-70
2024/01/29 06:31:53;;;;;;;12.60;9.50;;;;;;;1.43;90.60;102576.53;112711;244;38381;-70
2024/01/29 06:34:27;;;;;;;13.20;10.40;;;;;;;1.48;90.30;102576.20;112566;242;154613;-70
2024/01/29 06:37:01;;;;;;;13.90;10.90;;;;;;;1.55;90.38;102576.43;112661;244;38755;-70
2024/01/29 06:39:36;;;;;;;14.30;11.00;;;;;;;1.58;90.14;102576.72;112710;244;38267;-70
2024/01/29 06:42:10;;;;;;;16.50;11.40;;;;;;;1.58;89.79;102577.89;112654;244;39713;-71
2024/01/29 06:44:44;;;;;;;14.90;10.90;;;;;;;1.57;89.68;102587.16;112746;244;38804;-70
2024/01/29 06:47:19;;;;;;;14.80;11.30;;;;;;;1.59;89.56;102587.41;112545;244;154659;-70
2024/01/29 06:49:58;;;;;;;16.40;11.30;;;;;;;1.64;89.63;102582.92;112710;244;38207;-69
2024/01/29 06:52:32;;;;;;;16.00;11.90;;;;;;;1.68;89.41;102580.15;112547;241;154813;-68
2024/01/29 06:55:07;;;;;;;14.70;11.40;;;;;;;1.73;89.43;102577.91;112696;243;38719;-70
2024/01/29 06:57:42;;;;;;;16.40;11.70;;;;;;;1.78;89.31;102572.55;112648;243;38651;-70
2024/01/29 07:00:18;;;;;;;16.10;11.80;;;;;;;1.79;88.97;102565.73;112649;243;38523;-69
2024/01/29 07:02:52;;;;;;;16.10;11.70;;;;;;;1.79;88.51;102563.48;112750;243;38452;-68
2024/01/29 07:05:26;;;;;;;16.40;11.20;;;;;;;1.79;88.47;102566.58;112553;243;154906;-70
2024/01/29 07:08:00;;;;;;;13.50;10.90;;;;;;;1.79;88.29;102570.04;112673;244;38088;-70
2024/01/29 07:10:34;;;;;;;16.40;11.60;;;;;;;1.83;88.36;102567.04;112571;242;155623;-69
2024/01/29 07:13:08;;;;;;;15.00;11.50;;;;;;;1.90;88.61;102567.12;112676;244;41822;-69
2024/01/29 07:15:43;;;;;;;16.10;12.40;;;;;;;1.93;88.55;102570.49;112726;244;38234;-70
2024/01/29 07:18:17;;;;;;;15.80;12.30;;;;;;;1.96;88.17;102569.19;112518;244;189019;-70
2024/01/29 07:20:51;;;;;;;18.10;12.00;;;;;;;1.97;88.15;102570.28;112707;244;38900;-69
2024/01/29 07:23:25;;;;;;;17.80;11.20;;;;;;;2.02;88.19;102567.35;112514;243;154577;-69
2024/01/29 07:25:59;;;;;;;13.30;10.70;;;;;;;2.09;87.88;102568.58;112766;243;38518;-69
2024/01/29 07:28:33;;;;;;;12.70;9.80;;;;;;;2.16;87.61;102567.95;112453;243;190916;-69
2024/01/29 07:31:07;;;;;;;12.60;9.30;;;;;;;2.22;87.14;102566.42;112555;244;39755;-70
2024/01/29 07:33:41;;;;;;;13.00;9.40;;;;;;;2.24;86.91;102568.56;112718;244;38486;-70
2024/01/29 07:36:15;;;;;;;11.90;9.60;;;;;;;2.26;86.86;102570.17;112516;244;39913;-68
2024/01/29 07:38:49;;;;;;;11.90;8.50;;;;;;;2.29;86.66;102575.59;112704;244;38256;-68
2024/01/29 07:41:26;;;;;;;9.80;8.20;;;;;;;2.34;86.77;102572.66;112533;242;155482;-71
2024/01/29 07:44:00;;;;;;;8.60;7.00;;;;;;;2.83;88.63;102567.41;112733;244;38325;-71
2024/01/29 07:46:34;;;;;;;8.50;7.10;;;;;;;3.50;87.51;102567.02;112552;243;155097;-71
2024/01/29 07:49:09;;;;;;;6.70;6.00;;;;;;;3.87;85.45;102572.96;112573;244;174994;-71
2024/01/29 07:51:45;;;;;;;6.70;5.90;;;;;;;4.17;85.40;102577.50;112767;244;39997;-72
2024/01/29 07:54:21;;;;;;;8.00;6.50;;;;;;;4.69;85.25;102570.02;112640;243;38558;-70
2024/01/29 07:56:55;;;;;;;6.90;6.20;;;;;;;4.99;83.81;102571.34;112781;243;39826;-70
2024/01/29 07:59:32;;;;;;;7.10;6.40;;;;;;;5.02;81.28;102572.44;112567;242;153965;-69
2024/01/29 08:02:07;;;;;;;7.20;6.00;;;;;;;5.04;80.74;102573.52;112633;244;38557;-69
2024/01/29 08:04:41;;;;;;;8.30;6.40;;;;;;;4.96;78.23;102574.90;112511;243;153973;-70
2024/01/29 08:07:15;;;;;;;7.00;6.10;;;;;;;4.78;77.38;102580.77;112635;244;38685;-71
2024/01/29 08:09:50;;;;;;;6.80;6.00;;;;;;;4.69;78.32;102585.07;112656;243;154291;-69
2024/01/29 08:12:24;;;;;;;7.00;6.30;;;;;;;5.13;78.43;102578.89;112621;244;39466;-69
2024/01/29 08:14:58;;;;;;;9.70;6.50;;;;;;;5.72;78.66;102575.48;112734;244;39526;-71
2024/01/29 08:17:32;;;;;;;7.20;6.40;;;;;;;6.36;76.81;102561.63;112531;243;153957;-70
2024/01/29 08:20:08;;;;;;;6.00;5.40;;;;;;;6.94;75.50;102562.58;112743;243;40196;-71
2024/01/29 08:22:41;;;;;;;6.10;5.50;;;;;;;7.46;72.81;102554.98;112579;243;154270;-71
2024/01/29 08:25:15;;;;;;;6.00;5.30;;;;;;;7.68;72.07;102560.92;112678;244;38743;-71
2024/01/29 08:27:49;;;;;;;6.10;5.00;;;;;;;7.58;70.30;102559.61;112623;244;154643;-71
2024/01/29 08:30:23;;;;;;;5.30;4.80;;;;;;;7.46;69.01;102567.32;112649;244;38982;-71
2024/01/29 08:32:57;;;;;;;5.80;5.20;;;;;;;7.31;68.98;102566.98;112697;244;38688;-71
2024/01/29 08:35:31;;;;;;;5.80;5.00;;;;;;;7.10;69.24;102566.94;112511;242;153864;-71
2024/01/29 08:38:05;;;;;;;6.80;5.00;;;;;;;6.88;68.65;102568.91;112700;244;38642;-71
2024/01/29 08:40:39;;;;;;;6.10;5.20;;;;;;;6.63;68.67;102564.44;112572;243;153766;-71
2024/01/29 08:43:13;;;;;;;7.00;5.10;;;;;;;6.38;69.15;102567.38;112698;244;38256;-71
2024/01/29 08:45:48;;;;;;;5.40;4.90;;;;;;;6.13;69.66;102572.38;112055;244;907615;-73
2024/01/29 08:48:22;;;;;;;5.80;5.20;;;;;;;5.92;70.23;102574.10;112654;244;38251;-72
2024/01/29 08:50:55;;;;;;;6.10;4.90;;;;;;;5.81;70.24;102575.46;112803;244;38363;-72
2024/01/29 08:53:30;;;;;;;7.30;4.80;;;;;;;5.91;71.89;102568.54;112545;242;153977;-72
2024/01/29 08:56:04;;;;;;;5.60;4.90;;;;;;;6.30;70.33;102573.15;112645;244;174847;-71
2024/01/29 08:58:38;;;;;;;5.40;4.80;;;;;;;6.67;70.42;102572.98;112639;242;154107;-73
2024/01/29 09:01:11;;;;;;;7.10;4.90;;;;;;;7.09;69.86;102573.52;112705;244;38697;-71
2024/01/29 09:03:45;;;;;;;5.40;4.70;;;;;;;7.41;70.21;102571.43;112827;244;38850;-71
2024/01/29 09:06:19;;;;;;;5.70;4.70;;;;;;;7.46;67.64;102574.62;112629;244;38221;-71
2024/01/29 09:08:54;;;;;;;5.80;5.20;;;;;;;7.33;67.88;102576.73;111932;244;903957;-71
2024/01/29 09:11:28;;;;;;;6.10;5.00;;;;;;;7.19;68.05;102575.02;112545;242;154494;-70
2024/01/29 09:14:02;;;;;;;5.40;4.90;;;;;;;7.07;67.33;102574.54;112721;244;38228;-70
2024/01/29 09:16:36;;;;;;;6.20;5.50;;;;;;;7.06;67.47;102572.95;112626;241;153946;-70
2024/01/29 09:19:10;;;;;;;5.00;4.50;;;;;;;7.31;69.10;102571.16;112746;243;38625;-71
2024/01/29 09:21:50;;;;;;;5.60;5.00;;;;;;;7.70;69.17;102571.71;112764;243;38582;-71
2024/01/29 09:24:24;;;;;;;6.60;5.20;;;;;;;8.18;67.87;102575.58;112651;243;38229;-72
2024/01/29 09:26:57;;;;;;;6.60;4.80;;;;;;;8.59;67.43;102564.23;112779;243;38453;-72
2024/01/29 09:29:31;;;;;;;5.80;4.60;;;;;;;9.07;65.54;102561.64;112517;243;155312;-73
2024/01/29 09:32:06;;;;;;;5.60;4.70;;;;;;;9.49;64.84;102555.46;112742;244;38430;-73
2024/01/29 09:34:40;;;;;;;5.10;4.60;;;;;;;9.99;63.30;102560.02;112595;242;155618;-71
2024/01/29 09:37:15;;;;;;;5.30;4.80;;;;;;;10.42;62.31;102553.70;112659;244;39213;-71
2024/01/29 09:39:50;;;;;;;6.30;4.90;;;;;;;10.77;61.10;102553.77;112804;244;38244;-71
2024/01/29 09:42:28;;;;;;;7.60;5.10;;;;;;;11.15;59.95;102553.42;112625;244;38932;-72
2024/01/29 09:45:02;;;;;;;5.50;5.00;;;;;;;11.62;57.91;102551.89;112104;244;898711;-70
2024/01/29 09:47:36;;;;;;;5.70;4.80;;;;;;;11.95;57.09;102548.68;112403;242;174374;-70
2024/01/29 09:50:12;;;;;;;5.30;4.80;;;;;;;12.29;55.89;102548.89;112744;244;38351;-73
2024/01/29 09:52:46;;;;;;;5.30;4.60;;;;;;;12.63;55.71;102543.78;112530;243;155150;-73
2024/01/29 09:55:20;;;;;;;7.00;4.90;;;;;;;12.87;55.48;102538.23;112725;244;40291;-71
2024/01/29 09:57:54;;;;;;;5.40;4.50;;;;;;;13.17;55.14;102538.88;112591;244;39308;-71
2024/01/29 10:00:28;;;;;;;5.90;5.20;;;;;;;13.38;53.19;102537.89;112640;244;38504;-73
2024/01/29 10:03:03;;;;;;;5.80;5.20;;;;;;;13.67;53.35;102536.23;112766;244;39168;-73
2024/01/29 10:05:38;;;;;;;6.30;5.30;;;;;;;13.88;52.43;102534.64;112508;244;154333;-72
2024/01/29 10:08:12;;;;;;;5.90;4.90;;;;;;;14.12;52.00;102530.17;112749;243;38397;-73
2024/01/29 10:10:48;;;;;;;5.70;5.00;;;;;;;14.42;50.59;102525.21;112644;243;38704;-71
2024/01/29 10:13:22;;;;;;;6.00;5.40;;;;;;;14.59;50.79;102523.70;112637;243;41539;-71
2024/01/29 10:15:56;;;;;;;5.80;5.20;;;;;;;14.78;48.33;102519.42;112785;243;38426;-73
2024/01/29 10:18:31;;;;;;;5.20;4.70;;;;;;;14.92;48.94;102512.61;112670;243;39475;-74
2024/01/29 10:21:05;;;;;;;6.40;5.20;;;;;;;14.99;48.03;102511.41;112684;243;38257;-70
2024/01/29 10:23:39;;;;;;;6.80;5.60;;;;;;;15.13;47.55;102510.91;112539;243;154136;-70
2024/01/29 10:26:17;;;;;;;5.90;5.30;;;;;;;15.06;46.31;102504.39;112734;244;39716;-70
2024/01/29 10:29:01;;;;;;;5.50;5.00;;;;;;;15.06;47.28;102500.70;112583;242;156033;-71
2024/01/29 10:31:35;;;;;;;6.30;5.70;;;;;;;15.10;46.63;102498.69;112704;244;38519;-70
2024/01/29 10:34:09;;;;;;;7.00;6.30;;;;;;;14.86;46.28;102499.75;112607;242;154576;-70
2024/01/29 10:36:43;;;;;;;6.90;6.10;;;;;;;14.30;46.10;102499.64;112658;244;38371;-71
2024/01/29 10:39:17;;;;;;;7.10;5.80;;;;;;;13.61;46.61;102504.57;112720;244;38839;-69
2024/01/29 10:41:51;;;;;;;6.80;6.00;;;;;;;12.91;47.40;102506.82;112499;245;154004;-69
2024/01/29 10:44:24;;;;;;;7.30;6.10;;;;;;;12.21;47.47;102508.72;112783;243;38263;-70
2024/01/29 10:46:59;;;;;;;7.70;5.90;;;;;;;11.64;48.97;102508.00;112603;243;154489;-71
2024/01/29 10:49:33;;;;;;;7.30;6.40;;;;;;;11.15;49.73;102508.71;112684;244;38523;-70
2024/01/29 10:52:08;;;;;;;9.00;6.90;;;;;;;10.71;50.30;102510.51;112613;241;155328;-70
2024/01/29 10:54:41;;;;;;;7.20;6.50;;;;;;;10.23;50.58;102506.98;112662;243;39468;-70
2024/01/29 10:57:15;;;;;;;8.70;7.40;;;;;;;9.75;51.56;102506.17;112749;243;38769;-70
2024/01/29 10:59:49;;;;;;;8.30;6.80;;;;;;;9.44;52.55;102511.22;112522;243;154457;-70
2024/01/29 11:02:24;;;;;;;8.80;7.30;;;;;;;9.11;53.28;102505.41;112699;244;39493;-70
2024/01/29 11:04:57;;;;;;;8.30;7.30;;;;;;;8.82;54.13;102508.48;112552;242;154204;-69
2024/01/29 11:07:31;;;;;;;8.50;7.30;;;;;;;8.58;54.57;102505.77;112654;244;39690;-69
2024/01/29 11:10:09;;;;;;;10.70;7.80;;;;;;;8.32;54.86;102508.55;112362;244;172195;-70
2024/01/29 11:12:43;;;;;;;10.00;7.80;;;;;;;8.11;55.38;102508.27;112725;244;38357;-70
2024/01/29 11:15:17;;;;;;;10.50;7.50;;;;;;;7.92;55.83;102503.95;112709;244;38852;-69
2024/01/29 11:17:50;;;;;;;9.70;7.50;;;;;;;7.71;56.23;102505.35;112501;242;154383;-69
2024/01/29 11:20:25;;;;;;;9.60;7.90;;;;;;;7.47;56.51;102501.00;112688;244;39884;-69
2024/01/29 11:23:02;;;;;;;9.70;7.30;;;;;;;7.27;57.15;102499.94;112662;244;40150;-68
2024/01/29 11:25:36;;;;;;;11.30;7.50;;;;;;;7.09;57.75;102496.10;112720;244;39635;-68
2024/01/29 11:28:12;;;;;;;10.20;7.30;;;;;;;6.95;58.32;102490.23;112668;244;39746;-69
2024/01/29 11:30:52;;;;;;;9.20;8.00;;;;;;;6.84;58.66;102494.79;112648;243;40136;-69
2024/01/29 11:33:27;;;;;;;9.70;8.30;;;;;;;6.73;59.20;102490.51;112765;243;38637;-70
2024/01/29 11:36:07;;;;;;;10.40;8.00;;;;;;;6.64;59.69;102487.79;112540;243;153696;-69
2024/01/29 11:38:41;;;;;;;11.50;7.90;;;;;;;6.55;60.07;102485.95;112645;244;38474;-69
2024/01/29 11:41:16;;;;;;;9.20;7.70;;;;;;;6.48;60.29;102482.05;112602;241;154603;-69
2024/01/29 11:43:50;;;;;;;11.90;8.70;;;;;;;6.40;60.47;102478.65;112731;243;38364;-69
2024/01/29 11:46:24;;;;;;;9.00;8.00;;;;;;;6.33;60.93;102475.27;112514;243;154257;-70
2024/01/29 11:49:00;;;;;;;12.60;8.70;;;;;;;6.30;61.21;102474.54;112650;244;38841;-70
2024/01/29 11:51:34;;;;;;;10.10;7.40;;;;;;;6.28;61.38;102472.25;112769;244;38895;-70
2024/01/29 11:54:08;;;;;;;8.90;7.40;;;;;;;6.24;61.48;102469.95;112562;242;153806;-69